Jay Michael — WDD2051 — position and weather

sailwx.info

Track history (hours):
 
Tides and Currents Weather Stations Pressure Air Temp Water Temp Dewpoint Dewpoint Depression Visibility Wind Speed Wind Dir Waves Ship Positions

Jay Michael

Owner: Sterling Equipment Inc., Quincy, MA. More information available from US FCC via Universal Licensing System and Coast Guard Vessel Documentation Center.

Last reported at 2016-May-26 21:33 UTC. Time now 2016-May-27 00:25 UTC.
Position N 40°46' W 073°57'.

Length 21 m; draft 2.5 m.

Type: Tug. MMSI: 367110280.

Date/timePositionNaut miles runAvg speedWind from/ knotsBaromVisibWave heightAir tempDewpointWater temp
2016-May-26 21:33N 40°46' W 073°57'4 4.0
2016-May-26 20:33N 40°42' W 073°60'6 6.1
2016-May-26 19:33N 40°39' W 074°06'2 2.3
2016-May-26 18:33N 40°38' W 074°09'0 0.0
2016-May-26 17:33N 40°38' W 074°09'0 0.0
2016-May-26 16:34N 40°38' W 074°09'1 0.7
2016-May-26 15:32N 40°39' W 074°09'3 2.6
2016-May-26 14:28N 40°38' W 074°12'4 4.7
2016-May-26 13:33N 40°39' W 074°07'0 0.0
2016-May-26 12:32N 40°39' W 074°07'0 0.0
2016-May-26 11:16N 40°39' W 074°07'2 3.1
2016-May-26 10:33N 40°38' W 074°09'0 0.0
2016-May-26 09:33N 40°38' W 074°09'0 0.0
2016-May-26 08:33N 40°38' W 074°09'0 0.0
2016-May-26 07:33N 40°38' W 074°09'0 0.0
2016-May-26 06:33N 40°38' W 074°09'0 0.0
2016-May-26 05:33N 40°38' W 074°09'0 0.0
2016-May-26 04:33N 40°38' W 074°09'0 0.0
2016-May-26 03:32N 40°38' W 074°09'0 0.0
2016-May-26 02:32N 40°38' W 074°09'0 0.0
2016-May-26 01:32N 40°38' W 074°09'0 0.0
2016-May-26 00:29N 40°38' W 074°09'0 0.0
2016-May-25 23:28N 40°38' W 074°09'0 0.0
2016-May-25 22:30N 40°38' W 074°09'0 0.0
2016-May-25 21:32N 40°38' W 074°09'1 0.5
2016-May-25 20:33N 40°39' W 074°09'1 0.7
2016-May-25 19:29N 40°39' W 074°08'4 3.9
2016-May-25 18:29N 40°40' W 074°03'6 5.6
2016-May-25 17:25N 40°44' W 073°58'63 4.4
2016-May-25 03:04N 41°10' W 072°41'3 5.9
2016-May-25 02:34N 41°11' W 072°38'6 6.0
2016-May-25 01:33N 41°12' W 072°30'6 6.4
2016-May-25 00:33N 41°13' W 072°21'96 3.6
2016-May-23 21:29N 42°12' W 070°40'4 3.6
2016-May-23 20:28N 42°16' W 070°42'3 3.7
2016-May-23 19:34N 42°17' W 070°46'4 3.7
2016-May-23 18:33N 42°19' W 070°50'4 3.6
2016-May-23 17:34N 42°19' W 070°55'4 4.0
2016-May-23 16:27N 42°15' W 070°58'0 0.0
2016-May-23 14:19N 42°15' W 070°58'4 5.1
2016-May-23 13:33N 42°18' W 070°55'4 3.7
2016-May-23 12:34N 42°20' W 070°51'2 1.6
2016-May-23 11:34N 42°20' W 070°49'2 2.2
2016-May-23 10:32N 42°18' W 070°47'94 3.9
2016-May-22 10:08N 41°13' W 072°19'3 5.7
2016-May-22 09:32N 41°13' W 072°23'7 6.8
2016-May-22 08:33N 41°13' W 072°32'69 5.6
2016-May-21 20:05N 40°46' W 073°57'2 4.1
2016-May-21 19:34N 40°44' W 073°58'3 3.3
2016-May-21 18:34N 40°41' W 074°01'4 4.3
2016-May-21 17:33N 40°39' W 074°06'2 1.9
2016-May-21 16:17N 40°39' W 074°09'0 0.7
2016-May-21 15:33N 40°39' W 074°09'2 0.8
2016-May-21 13:30N 40°39' W 074°07'2 2.2
2016-May-21 12:30N 40°38' W 074°09'0 0.1
2016-May-21 11:33N 40°38' W 074°09'0 0.0
2016-May-21 10:33N 40°38' W 074°09'0 0.0
2016-May-21 09:34N 40°38' W 074°09'0 0.0
2016-May-21 08:33N 40°38' W 074°09'0 0.0
2016-May-21 07:33N 40°38' W 074°09'0 0.0
2016-May-21 06:33N 40°38' W 074°09'0 0.0
2016-May-21 05:33N 40°38' W 074°09'0 0.0
2016-May-21 04:33N 40°38' W 074°09'0 0.0
2016-May-21 03:33N 40°38' W 074°09'0 0.0
2016-May-21 02:33N 40°38' W 074°09'0 0.0
2016-May-21 01:33N 40°38' W 074°09'0 0.0
2016-May-21 00:33N 40°38' W 074°09'0 0.0
2016-May-20 23:33N 40°38' W 074°09'0 0.0
2016-May-20 22:33N 40°38' W 074°09'0 0.0
2016-May-20 21:33N 40°38' W 074°09'0 0.0
2016-May-20 20:33N 40°38' W 074°09'0 0.0
2016-May-20 19:33N 40°38' W 074°09'0 0.0
2016-May-20 18:33N 40°38' W 074°09'0 0.0
2016-May-20 17:33N 40°38' W 074°09'0 0.0
2016-May-20 16:33N 40°38' W 074°09'0 0.0
2016-May-20 15:33N 40°38' W 074°09'0 0.0
2016-May-20 14:33N 40°38' W 074°09'0 0.0
2016-May-20 13:34N 40°38' W 074°09'0 0.0
2016-May-20 12:33N 40°38' W 074°09'0 0.0
2016-May-20 11:33N 40°38' W 074°09'0 0.0
2016-May-20 10:33N 40°38' W 074°09'0 0.0
2016-May-20 09:33N 40°38' W 074°09'0 0.0
2016-May-20 08:33N 40°38' W 074°09'0 0.0
2016-May-20 07:34N 40°38' W 074°09'0 0.0
2016-May-20 06:34N 40°38' W 074°09'0 0.0
2016-May-20 05:33N 40°38' W 074°09'0 0.0
2016-May-20 04:33N 40°38' W 074°09'0 0.0
2016-May-20 03:33N 40°38' W 074°09'0 0.0
2016-May-20 02:33N 40°38' W 074°09'0 0.0
2016-May-20 01:33N 40°38' W 074°09'0 0.0
2016-May-20 00:33N 40°38' W 074°09'0 0.0
2016-May-19 23:34N 40°38' W 074°09'0 0.0
2016-May-19 22:33N 40°38' W 074°09'0 0.0
2016-May-19 21:33N 40°38' W 074°09'0 0.0
2016-May-19 20:33N 40°38' W 074°09'0 0.0
2016-May-19 19:33N 40°38' W 074°09'0 0.0
2016-May-19 18:33N 40°38' W 074°09'0 0.0
2016-May-19 17:33N 40°38' W 074°09'0 0.0
2016-May-19 16:33N 40°38' W 074°09'0 0.0
2016-May-19 15:33N 40°38' W 074°09'0 0.0
2016-May-19 14:34N 40°38' W 074°09'0 0.0
2016-May-19 13:33N 40°38' W 074°09'0 0.0
2016-May-19 12:33N 40°38' W 074°09'0 0.0
2016-May-19 11:33N 40°38' W 074°09'0 0.0
2016-May-19 10:33N 40°38' W 074°09'0 0.0
2016-May-19 09:33N 40°38' W 074°09'0 0.0
2016-May-19 08:33N 40°38' W 074°09'0 0.0
2016-May-19 07:33N 40°38' W 074°09'0 0.0
2016-May-19 06:33N 40°38' W 074°09'0 0.0
2016-May-19 05:33N 40°38' W 074°09'0 0.0
2016-May-19 04:33N 40°38' W 074°09'0 0.0
2016-May-19 03:34N 40°38' W 074°09'0 0.0
2016-May-19 02:33N 40°38' W 074°09'0 0.0
2016-May-19 01:34N 40°38' W 074°09'0 0.0
2016-May-19 00:33N 40°38' W 074°09'0 0.0
2016-May-18 23:33N 40°38' W 074°09'0 0.0
2016-May-18 22:33N 40°38' W 074°09'0 0.0
2016-May-18 21:33N 40°38' W 074°09'0 0.0
2016-May-18 20:33N 40°38' W 074°09'0 0.0
2016-May-18 19:33N 40°38' W 074°09'0 0.0
2016-May-18 18:33N 40°38' W 074°09'0 0.0
2016-May-18 17:33N 40°38' W 074°09'0 0.0
2016-May-18 16:33N 40°38' W 074°09'0 0.0
2016-May-18 15:33N 40°38' W 074°09'0 0.0
2016-May-18 14:33N 40°38' W 074°09'0 0.0
2016-May-18 13:33N 40°38' W 074°09'0 0.0
2016-May-18 12:33N 40°38' W 074°09'0 0.0
2016-May-18 11:33N 40°38' W 074°09'0 0.0
2016-May-18 10:34N 40°38' W 074°09'0 0.0
2016-May-18 09:33N 40°38' W 074°09'0 0.0
2016-May-18 08:33N 40°38' W 074°09'0 0.0
2016-May-18 07:33N 40°38' W 074°09'0 0.0
2016-May-18 06:33N 40°38' W 074°09'0 0.0
2016-May-18 05:33N 40°38' W 074°09'0 0.0
2016-May-18 04:33N 40°38' W 074°09'0 0.0
2016-May-18 03:33N 40°38' W 074°09'0 0.0
2016-May-18 02:33N 40°38' W 074°09'0 0.0
2016-May-18 01:33N 40°38' W 074°09'0 0.0
2016-May-18 00:33N 40°38' W 074°09'0 0.0
2016-May-17 23:33N 40°38' W 074°09'0 0.0
2016-May-17 22:33N 40°38' W 074°09'0 0.0
2016-May-17 21:33N 40°38' W 074°09'0 0.0
2016-May-17 20:33N 40°38' W 074°09'0 0.0
2016-May-17 19:33N 40°38' W 074°09'0 0.0
2016-May-17 18:33N 40°38' W 074°09'0 0.0
2016-May-17 17:33N 40°38' W 074°09'0 0.0
2016-May-17 16:33N 40°38' W 074°09'0 0.0
2016-May-17 15:25N 40°38' W 074°09'0 0.0
2016-May-17 14:33N 40°38' W 074°09'0 0.0
2016-May-17 13:33N 40°38' W 074°09'0 0.0
2016-May-17 12:33N 40°38' W 074°09'0 0.0
2016-May-17 11:33N 40°38' W 074°09'0 0.0
2016-May-17 10:33N 40°38' W 074°09'0 0.0
2016-May-17 09:33N 40°38' W 074°09'0 0.0
2016-May-17 08:33N 40°38' W 074°09'0 0.0
2016-May-17 07:33N 40°38' W 074°09'0 0.0
2016-May-17 06:33N 40°38' W 074°09'0 0.0
2016-May-17 05:33N 40°38' W 074°09'0 0.0
2016-May-17 04:33N 40°38' W 074°09'0 0.0
2016-May-17 03:33N 40°38' W 074°09'0 0.0
2016-May-17 02:33N 40°38' W 074°09'0 0.0
2016-May-17 01:33N 40°38' W 074°09'0 0.0
2016-May-17 00:33N 40°38' W 074°09'  
Track history (hours):
 
Tides and Currents Weather Stations Pressure Air Temp Water Temp Dewpoint Dewpoint Depression Visibility Wind Speed Wind Dir Waves Ship Positions

Jay Michael

Owner: Sterling Equipment Inc., Quincy, MA. More information available from US FCC via Universal Licensing System and Coast Guard Vessel Documentation Center.

Last reported at 2016-May-26 21:33 UTC. Time now 2016-May-27 00:25 UTC.
Position N 40°46' W 073°57'.

Length 21 m; draft 2.5 m.

Type: Tug. MMSI: 367110280.

Date/timePositionNaut miles runAvg speedWind from/ knotsBaromVisibWave heightAir tempDewpointWater temp
2016-May-26 21:33N 40°46' W 073°57'4 4.0
2016-May-26 20:33N 40°42' W 073°60'6 6.1
2016-May-26 19:33N 40°39' W 074°06'2 2.3
2016-May-26 18:33N 40°38' W 074°09'0 0.0
2016-May-26 17:33N 40°38' W 074°09'0 0.0
2016-May-26 16:34N 40°38' W 074°09'1 0.7
2016-May-26 15:32N 40°39' W 074°09'3 2.6
2016-May-26 14:28N 40°38' W 074°12'4 4.7
2016-May-26 13:33N 40°39' W 074°07'0 0.0
2016-May-26 12:32N 40°39' W 074°07'0 0.0
2016-May-26 11:16N 40°39' W 074°07'2 3.1
2016-May-26 10:33N 40°38' W 074°09'0 0.0
2016-May-26 09:33N 40°38' W 074°09'0 0.0
2016-May-26 08:33N 40°38' W 074°09'0 0.0
2016-May-26 07:33N 40°38' W 074°09'0 0.0
2016-May-26 06:33N 40°38' W 074°09'0 0.0
2016-May-26 05:33N 40°38' W 074°09'0 0.0
2016-May-26 04:33N 40°38' W 074°09'0 0.0
2016-May-26 03:32N 40°38' W 074°09'0 0.0
2016-May-26 02:32N 40°38' W 074°09'0 0.0
2016-May-26 01:32N 40°38' W 074°09'0 0.0
2016-May-26 00:29N 40°38' W 074°09'0 0.0
2016-May-25 23:28N 40°38' W 074°09'0 0.0
2016-May-25 22:30N 40°38' W 074°09'0 0.0
2016-May-25 21:32N 40°38' W 074°09'1 0.5
2016-May-25 20:33N 40°39' W 074°09'1 0.7
2016-May-25 19:29N 40°39' W 074°08'4 3.9
2016-May-25 18:29N 40°40' W 074°03'6 5.6
2016-May-25 17:25N 40°44' W 073°58'63 4.4
2016-May-25 03:04N 41°10' W 072°41'3 5.9
2016-May-25 02:34N 41°11' W 072°38'6 6.0
2016-May-25 01:33N 41°12' W 072°30'6 6.4
2016-May-25 00:33N 41°13' W 072°21'96 3.6
2016-May-23 21:29N 42°12' W 070°40'4 3.6
2016-May-23 20:28N 42°16' W 070°42'3 3.7
2016-May-23 19:34N 42°17' W 070°46'4 3.7
2016-May-23 18:33N 42°19' W 070°50'4 3.6
2016-May-23 17:34N 42°19' W 070°55'4 4.0
2016-May-23 16:27N 42°15' W 070°58'0 0.0
2016-May-23 14:19N 42°15' W 070°58'4 5.1
2016-May-23 13:33N 42°18' W 070°55'4 3.7
2016-May-23 12:34N 42°20' W 070°51'2 1.6
2016-May-23 11:34N 42°20' W 070°49'2 2.2
2016-May-23 10:32N 42°18' W 070°47'94 3.9
2016-May-22 10:08N 41°13' W 072°19'3 5.7
2016-May-22 09:32N 41°13' W 072°23'7 6.8
2016-May-22 08:33N 41°13' W 072°32'69 5.6
2016-May-21 20:05N 40°46' W 073°57'2 4.1
2016-May-21 19:34N 40°44' W 073°58'3 3.3
2016-May-21 18:34N 40°41' W 074°01'4 4.3
2016-May-21 17:33N 40°39' W 074°06'2 1.9
2016-May-21 16:17N 40°39' W 074°09'0 0.7
2016-May-21 15:33N 40°39' W 074°09'2 0.8
2016-May-21 13:30N 40°39' W 074°07'2 2.2
2016-May-21 12:30N 40°38' W 074°09'0 0.1
2016-May-21 11:33N 40°38' W 074°09'0 0.0
2016-May-21 10:33N 40°38' W 074°09'0 0.0
2016-May-21 09:34N 40°38' W 074°09'0 0.0
2016-May-21 08:33N 40°38' W 074°09'0 0.0
2016-May-21 07:33N 40°38' W 074°09'0 0.0
2016-May-21 06:33N 40°38' W 074°09'0 0.0
2016-May-21 05:33N 40°38' W 074°09'0 0.0
2016-May-21 04:33N 40°38' W 074°09'0 0.0
2016-May-21 03:33N 40°38' W 074°09'0 0.0
2016-May-21 02:33N 40°38' W 074°09'0 0.0
2016-May-21 01:33N 40°38' W 074°09'0 0.0
2016-May-21 00:33N 40°38' W 074°09'0 0.0
2016-May-20 23:33N 40°38' W 074°09'0 0.0
2016-May-20 22:33N 40°38' W 074°09'0 0.0
2016-May-20 21:33N 40°38' W 074°09'0 0.0
2016-May-20 20:33N 40°38' W 074°09'0 0.0
2016-May-20 19:33N 40°38' W 074°09'0 0.0
2016-May-20 18:33N 40°38' W 074°09'0 0.0
2016-May-20 17:33N 40°38' W 074°09'0 0.0
2016-May-20 16:33N 40°38' W 074°09'0 0.0
2016-May-20 15:33N 40°38' W 074°09'0 0.0
2016-May-20 14:33N 40°38' W 074°09'0 0.0
2016-May-20 13:34N 40°38' W 074°09'0 0.0
2016-May-20 12:33N 40°38' W 074°09'0 0.0
2016-May-20 11:33N 40°38' W 074°09'0 0.0
2016-May-20 10:33N 40°38' W 074°09'0 0.0
2016-May-20 09:33N 40°38' W 074°09'0 0.0
2016-May-20 08:33N 40°38' W 074°09'0 0.0
2016-May-20 07:34N 40°38' W 074°09'0 0.0
2016-May-20 06:34N 40°38' W 074°09'0 0.0
2016-May-20 05:33N 40°38' W 074°09'0 0.0
2016-May-20 04:33N 40°38' W 074°09'0 0.0
2016-May-20 03:33N 40°38' W 074°09'0 0.0
2016-May-20 02:33N 40°38' W 074°09'0 0.0
2016-May-20 01:33N 40°38' W 074°09'0 0.0
2016-May-20 00:33N 40°38' W 074°09'0 0.0
2016-May-19 23:34N 40°38' W 074°09'0 0.0
2016-May-19 22:33N 40°38' W 074°09'0 0.0
2016-May-19 21:33N 40°38' W 074°09'0 0.0
2016-May-19 20:33N 40°38' W 074°09'0 0.0
2016-May-19 19:33N 40°38' W 074°09'0 0.0
2016-May-19 18:33N 40°38' W 074°09'0 0.0
2016-May-19 17:33N 40°38' W 074°09'0 0.0
2016-May-19 16:33N 40°38' W 074°09'0 0.0
2016-May-19 15:33N 40°38' W 074°09'0 0.0
2016-May-19 14:34N 40°38' W 074°09'0 0.0
2016-May-19 13:33N 40°38' W 074°09'0 0.0
2016-May-19 12:33N 40°38' W 074°09'0 0.0
2016-May-19 11:33N 40°38' W 074°09'0 0.0
2016-May-19 10:33N 40°38' W 074°09'0 0.0
2016-May-19 09:33N 40°38' W 074°09'0 0.0
2016-May-19 08:33N 40°38' W 074°09'0 0.0
2016-May-19 07:33N 40°38' W 074°09'0 0.0
2016-May-19 06:33N 40°38' W 074°09'0 0.0
2016-May-19 05:33N 40°38' W 074°09'0 0.0
2016-May-19 04:33N 40°38' W 074°09'0 0.0
2016-May-19 03:34N 40°38' W 074°09'0 0.0
2016-May-19 02:33N 40°38' W 074°09'0 0.0
2016-May-19 01:34N 40°38' W 074°09'0 0.0
2016-May-19 00:33N 40°38' W 074°09'0 0.0
2016-May-18 23:33N 40°38' W 074°09'0 0.0
2016-May-18 22:33N 40°38' W 074°09'0 0.0
2016-May-18 21:33N 40°38' W 074°09'0 0.0
2016-May-18 20:33N 40°38' W 074°09'0 0.0
2016-May-18 19:33N 40°38' W 074°09'0 0.0
2016-May-18 18:33N 40°38' W 074°09'0 0.0
2016-May-18 17:33N 40°38' W 074°09'0 0.0
2016-May-18 16:33N 40°38' W 074°09'0 0.0
2016-May-18 15:33N 40°38' W 074°09'0 0.0
2016-May-18 14:33N 40°38' W 074°09'0 0.0
2016-May-18 13:33N 40°38' W 074°09'0 0.0
2016-May-18 12:33N 40°38' W 074°09'0 0.0
2016-May-18 11:33N 40°38' W 074°09'0 0.0
2016-May-18 10:34N 40°38' W 074°09'0 0.0
2016-May-18 09:33N 40°38' W 074°09'0 0.0
2016-May-18 08:33N 40°38' W 074°09'0 0.0
2016-May-18 07:33N 40°38' W 074°09'0 0.0
2016-May-18 06:33N 40°38' W 074°09'0 0.0
2016-May-18 05:33N 40°38' W 074°09'0 0.0
2016-May-18 04:33N 40°38' W 074°09'0 0.0
2016-May-18 03:33N 40°38' W 074°09'0 0.0
2016-May-18 02:33N 40°38' W 074°09'0 0.0
2016-May-18 01:33N 40°38' W 074°09'0 0.0
2016-May-18 00:33N 40°38' W 074°09'0 0.0
2016-May-17 23:33N 40°38' W 074°09'0 0.0
2016-May-17 22:33N 40°38' W 074°09'0 0.0
2016-May-17 21:33N 40°38' W 074°09'0 0.0
2016-May-17 20:33N 40°38' W 074°09'0 0.0
2016-May-17 19:33N 40°38' W 074°09'0 0.0
2016-May-17 18:33N 40°38' W 074°09'0 0.0
2016-May-17 17:33N 40°38' W 074°09'0 0.0
2016-May-17 16:33N 40°38' W 074°09'0 0.0
2016-May-17 15:25N 40°38' W 074°09'0 0.0
2016-May-17 14:33N 40°38' W 074°09'0 0.0
2016-May-17 13:33N 40°38' W 074°09'0 0.0
2016-May-17 12:33N 40°38' W 074°09'0 0.0
2016-May-17 11:33N 40°38' W 074°09'0 0.0
2016-May-17 10:33N 40°38' W 074°09'0 0.0
2016-May-17 09:33N 40°38' W 074°09'0 0.0
2016-May-17 08:33N 40°38' W 074°09'0 0.0
2016-May-17 07:33N 40°38' W 074°09'0 0.0
2016-May-17 06:33N 40°38' W 074°09'0 0.0
2016-May-17 05:33N 40°38' W 074°09'0 0.0
2016-May-17 04:33N 40°38' W 074°09'0 0.0
2016-May-17 03:33N 40°38' W 074°09'0 0.0
2016-May-17 02:33N 40°38' W 074°09'0 0.0
2016-May-17 01:33N 40°38' W 074°09'0 0.0
2016-May-17 00:33N 40°38' W 074°09'  

Dump ship's entire track history